createdAt,value
2023-02-06T00:01:45.864Z,-4.25
2023-02-06T00:04:14.522Z,-4.23
2023-02-06T00:06:43.118Z,-4.20
2023-02-06T00:09:12.116Z,-4.18
2023-02-06T00:11:40.674Z,-4.18
2023-02-06T00:14:09.225Z,-4.16
2023-02-06T00:16:37.832Z,-4.15
2023-02-06T00:19:07.860Z,-4.13
2023-02-06T00:21:36.427Z,-4.11
2023-02-06T00:24:07.131Z,-4.09
2023-02-06T00:26:35.830Z,-4.06
2023-02-06T00:29:04.360Z,-4.03
2023-02-06T00:31:33.080Z,-4.01
2023-02-06T00:34:01.654Z,-3.99
2023-02-06T00:36:31.746Z,-3.96
2023-02-06T00:39:00.251Z,-3.97
2023-02-06T00:41:28.767Z,-3.94
2023-02-06T00:43:57.378Z,-3.95
2023-02-06T00:46:25.943Z,-3.94
2023-02-06T00:48:54.491Z,-3.93
2023-02-06T00:51:23.035Z,-3.92
2023-02-06T00:53:53.132Z,-3.90
2023-02-06T00:56:21.719Z,-3.90
2023-02-06T00:58:50.373Z,-3.90
2023-02-06T01:01:19.364Z,-3.88
2023-02-06T01:03:48.074Z,-3.85
2023-02-06T01:06:16.578Z,-3.84
2023-02-06T01:08:45.247Z,-3.81
2023-02-06T01:11:17.539Z,-3.80
2023-02-06T01:13:46.524Z,-3.80
2023-02-06T01:16:22.004Z,-3.76
2023-02-06T01:18:51.118Z,-3.74
2023-02-06T01:21:21.857Z,-3.72
2023-02-06T01:23:52.624Z,-3.72
2023-02-06T01:26:25.913Z,-3.70
2023-02-06T01:28:55.239Z,-3.64
2023-02-06T01:31:27.112Z,-3.63
2023-02-06T01:33:57.558Z,-3.64
2023-02-06T01:36:26.646Z,-3.63
2023-02-06T01:38:55.235Z,-3.62
2023-02-06T01:41:26.509Z,-3.61
2023-02-06T01:44:11.902Z,-3.61
2023-02-06T01:46:42.202Z,-3.62
2023-02-06T01:49:17.016Z,-3.63
2023-02-06T01:51:46.216Z,-3.61
2023-02-06T01:54:16.663Z,-3.60
2023-02-06T01:56:49.490Z,-3.59
2023-02-06T01:59:18.339Z,-3.57
2023-02-06T02:01:47.695Z,-3.55
2023-02-06T02:04:20.383Z,-3.56
2023-02-06T02:06:54.582Z,-3.56
2023-02-06T02:09:24.721Z,-3.54
2023-02-06T02:11:54.694Z,-3.54
2023-02-06T02:14:23.342Z,-3.54
2023-02-06T02:17:04.747Z,-3.53
2023-02-06T02:20:09.256Z,-3.51
2023-02-06T02:23:02.316Z,-3.49
2023-02-06T02:26:07.735Z,-3.48
2023-02-06T02:29:12.233Z,-3.45
2023-02-06T02:32:19.355Z,-3.43
2023-02-06T02:35:17.489Z,-3.43
2023-02-06T02:38:00.316Z,-3.41
2023-02-06T02:40:39.181Z,-3.42
2023-02-06T02:43:21.185Z,-3.40
2023-02-06T02:45:53.487Z,-3.41
2023-02-06T02:48:26.610Z,-3.41
2023-02-06T02:50:57.061Z,-3.38
2023-02-06T02:53:28.052Z,-3.36
2023-02-06T02:55:57.613Z,-3.36
2023-02-06T02:58:31.597Z,-3.35
2023-02-06T03:01:05.023Z,-3.32
2023-02-06T03:03:38.824Z,-3.31
2023-02-06T03:06:32.106Z,-3.28
2023-02-06T03:09:06.512Z,-3.24
2023-02-06T03:11:38.161Z,-3.22
2023-02-06T03:14:10.848Z,-3.19
2023-02-06T03:16:44.436Z,-3.13
2023-02-06T03:19:16.597Z,-3.08
2023-02-06T03:21:48.066Z,-3.05
2023-02-06T03:24:22.683Z,-3.05
2023-02-06T03:26:54.351Z,-3.01
2023-02-06T03:29:23.129Z,-2.96
2023-02-06T03:31:56.267Z,-2.93
2023-02-06T03:34:32.759Z,-2.91
2023-02-06T03:37:02.057Z,-2.90
2023-02-06T03:39:32.243Z,-2.86
2023-02-06T03:42:01.963Z,-2.81
2023-02-06T03:44:36.084Z,-2.77
2023-02-06T03:47:06.415Z,-2.72
2023-02-06T03:49:36.841Z,-2.72
2023-02-06T03:52:09.355Z,-2.71
2023-02-06T03:54:44.356Z,-2.67
2023-02-06T03:57:19.540Z,-2.63
2023-02-06T03:59:48.413Z,-2.60
2023-02-06T04:02:18.447Z,-2.60
2023-02-06T04:04:47.630Z,-2.58
2023-02-06T04:07:23.923Z,-2.60
2023-02-06T04:09:54.696Z,-2.57
2023-02-06T04:12:24.313Z,-2.56
2023-02-06T04:14:53.494Z,-2.53
2023-02-06T04:17:40.694Z,-2.51
2023-02-06T04:20:13.688Z,-2.52
2023-02-06T04:22:42.987Z,-2.51
2023-02-06T04:25:13.265Z,-2.47
2023-02-06T04:27:42.032Z,-2.47
2023-02-06T04:30:12.960Z,-2.47
2023-02-06T04:32:41.971Z,-2.45
2023-02-06T04:35:10.991Z,-2.45
2023-02-06T04:37:40.246Z,-2.44
2023-02-06T04:40:09.349Z,-2.42
2023-02-06T04:42:39.840Z,-2.38
2023-02-06T04:45:09.551Z,-2.35
2023-02-06T04:47:38.476Z,-2.32
2023-02-06T04:50:07.865Z,-2.29
2023-02-06T04:52:36.686Z,-2.26
2023-02-06T04:55:05.652Z,-2.21
2023-02-06T04:57:34.605Z,-2.17
2023-02-06T05:00:06.491Z,-2.12
2023-02-06T05:02:39.903Z,-2.04
2023-02-06T05:05:11.029Z,-2.02
2023-02-06T05:07:40.491Z,-1.97
2023-02-06T05:10:10.255Z,-1.93
2023-02-06T05:12:39.307Z,-1.86
2023-02-06T05:15:10.392Z,-1.83
2023-02-06T05:17:39.094Z,-1.91
2023-02-06T05:20:08.911Z,-1.88
2023-02-06T05:22:37.729Z,-1.87
2023-02-06T05:25:06.938Z,-1.88
2023-02-06T05:27:35.647Z,-1.82
2023-02-06T05:30:04.589Z,-1.87
2023-02-06T05:32:34.964Z,-1.85
2023-02-06T05:35:04.200Z,-1.86
2023-02-06T05:37:33.646Z,-1.81
2023-02-06T05:40:02.453Z,-1.78
2023-02-06T05:42:31.243Z,-1.74
2023-02-06T05:44:59.995Z,-1.70
2023-02-06T05:47:28.998Z,-1.76
2023-02-06T05:49:59.168Z,-1.79
2023-02-06T05:52:28.009Z,-1.76
2023-02-06T05:54:56.805Z,-1.78
2023-02-06T05:57:28.669Z,-1.75
2023-02-06T05:59:57.521Z,-1.77
2023-02-06T06:02:26.675Z,-1.76
2023-02-06T06:04:56.266Z,-1.77
2023-02-06T06:07:26.774Z,-1.76
2023-02-06T06:09:55.983Z,-1.78
2023-02-06T06:12:25.196Z,-1.76
2023-02-06T06:14:53.931Z,-1.74
2023-02-06T06:17:22.926Z,-1.77
2023-02-06T06:19:53.649Z,-1.77
2023-02-06T06:22:23.252Z,-1.74
2023-02-06T06:24:53.417Z,-1.74
2023-02-06T06:27:22.392Z,-1.74
2023-02-06T06:29:51.364Z,-1.74
2023-02-06T06:32:20.707Z,-1.73
2023-02-06T06:34:49.531Z,-1.70
2023-02-06T06:37:18.512Z,-1.74
2023-02-06T06:39:47.373Z,-1.69
2023-02-06T06:42:17.570Z,-1.68
2023-02-06T06:44:46.336Z,-1.66
2023-02-06T06:47:14.997Z,-1.66
2023-02-06T06:49:43.974Z,-1.68
2023-02-06T06:52:23.984Z,-1.65
2023-02-06T06:54:54.376Z,-1.63
2023-02-06T06:57:24.704Z,-1.63
2023-02-06T06:59:56.805Z,-1.60
2023-02-06T07:02:27.632Z,-1.57
2023-02-06T07:05:00.198Z,-1.58
2023-02-06T07:07:30.256Z,-1.58
2023-02-06T07:10:00.062Z,-1.57
2023-02-06T07:12:30.676Z,-1.56
2023-02-06T07:15:02.718Z,-1.52
2023-02-06T07:17:31.867Z,-1.49
2023-02-06T07:20:00.919Z,-1.49
2023-02-06T07:22:29.652Z,-1.47
2023-02-06T07:24:58.556Z,-1.44
2023-02-06T07:27:27.289Z,-1.40
2023-02-06T07:29:57.461Z,-1.40
2023-02-06T07:32:26.571Z,-1.38
2023-02-06T07:34:55.274Z,-1.35
2023-02-06T07:37:24.033Z,-1.34
2023-02-06T07:39:52.895Z,-1.33
2023-02-06T07:42:21.894Z,-1.35
2023-02-06T07:44:57.126Z,-1.32
2023-02-06T07:47:25.836Z,-1.31
2023-02-06T07:49:54.522Z,-1.24
2023-02-06T07:52:23.625Z,-1.26
2023-02-06T07:54:52.326Z,-1.24
2023-02-06T07:57:21.069Z,-1.20
2023-02-06T07:59:49.892Z,-1.19
2023-02-06T08:02:20.334Z,-1.20
2023-02-06T08:04:49.191Z,-1.18
2023-02-06T08:07:19.251Z,-1.20
2023-02-06T08:09:48.226Z,-1.14
2023-02-06T08:12:16.913Z,-1.15
2023-02-06T08:14:47.614Z,-1.14
2023-02-06T08:17:18.364Z,-1.10
2023-02-06T08:19:50.155Z,-1.09
2023-02-06T08:22:19.052Z,-1.06
2023-02-06T08:24:48.843Z,-1.06
2023-02-06T08:27:17.733Z,-1.05
2023-02-06T08:29:46.577Z,-1.06
2023-02-06T08:32:15.490Z,-1.02
2023-02-06T08:34:44.993Z,-1.01
2023-02-06T08:37:17.924Z,-1.00
2023-02-06T08:39:46.865Z,-0.97
2023-02-06T08:42:15.645Z,-1.00
2023-02-06T08:44:44.475Z,-1.03
2023-02-06T08:47:13.245Z,-0.98
2023-02-06T08:49:42.243Z,-1.04
2023-02-06T08:52:11.058Z,-1.01
2023-02-06T08:54:42.726Z,-0.99
2023-02-06T08:57:12.821Z,-1.01
2023-02-06T08:59:41.792Z,-0.97
2023-02-06T09:02:12.168Z,-0.96
2023-02-06T09:20:27.652Z,-0.89
2023-02-06T09:22:56.396Z,-0.88
2023-02-06T09:25:25.198Z,-0.88
2023-02-06T09:27:55.151Z,-0.81
2023-02-06T09:30:25.196Z,-0.81
2023-02-06T09:32:53.886Z,-0.76
2023-02-06T09:35:22.680Z,-0.77
2023-02-06T09:37:52.933Z,-0.79
2023-02-06T09:40:27.326Z,-0.76
2023-02-06T09:42:56.824Z,-0.77
2023-02-06T09:45:30.117Z,-0.76
2023-02-06T09:48:08.022Z,-0.78
2023-02-06T09:50:46.664Z,-0.72
2023-02-06T09:53:24.888Z,-0.69
2023-02-06T09:56:00.184Z,-0.64
2023-02-06T09:58:38.284Z,-0.63
2023-02-06T10:01:15.707Z,-0.67
2023-02-06T10:04:14.125Z,-0.68
2023-02-06T10:06:51.794Z,-0.72
2023-02-06T10:09:27.296Z,-0.70
2023-02-06T10:12:01.084Z,-0.69
2023-02-06T10:14:36.651Z,-0.74
2023-02-06T10:17:19.262Z,-0.72
2023-02-06T10:19:54.011Z,-0.71
2023-02-06T10:22:29.689Z,-0.67
2023-02-06T10:25:18.300Z,-0.72
2023-02-06T10:27:49.633Z,-0.66
2023-02-06T10:30:21.247Z,-0.70
2023-02-06T10:32:58.324Z,-0.65
2023-02-06T10:35:37.681Z,-0.65
2023-02-06T10:38:51.687Z,-0.61
2023-02-06T10:41:35.332Z,-0.67
2023-02-06T10:44:22.397Z,-0.68
2023-02-06T10:46:53.257Z,-0.72
2023-02-06T10:49:28.068Z,-0.82
2023-02-06T10:52:00.868Z,-0.83
2023-02-06T10:54:36.300Z,-0.83
2023-02-06T10:57:17.006Z,-0.80
2023-02-06T10:59:49.027Z,-0.79
2023-02-06T11:02:25.695Z,-0.79
2023-02-06T11:05:01.735Z,-0.71
2023-02-06T11:07:33.692Z,-0.73
2023-02-06T11:10:02.863Z,-0.69
2023-02-06T11:12:37.259Z,-0.56
2023-02-06T11:15:19.902Z,-0.46
2023-02-06T11:17:48.809Z,-0.49
2023-02-06T11:20:22.372Z,-0.45
2023-02-06T11:22:53.407Z,-0.60
2023-02-06T11:25:33.924Z,-0.67
2023-02-06T11:28:05.813Z,-0.82
2023-02-06T11:30:37.723Z,-0.87
2023-02-06T11:33:08.925Z,-0.87
2023-02-06T11:35:41.711Z,-0.91
2023-02-06T11:38:17.395Z,-0.90
2023-02-06T11:40:56.364Z,-0.86
2023-02-06T11:43:27.884Z,-0.84
2023-02-06T11:46:18.463Z,-0.88
2023-02-06T11:48:49.255Z,-0.85
2023-02-06T11:51:18.214Z,-0.84
2023-02-06T11:54:08.658Z,-0.80
2023-02-06T11:56:37.504Z,-0.94
2023-02-06T11:59:23.443Z,-0.99
2023-02-06T12:01:52.321Z,-0.99
2023-02-06T12:04:26.142Z,-1.02
2023-02-06T12:07:00.605Z,-1.05
2023-02-06T12:09:29.835Z,-1.10
2023-02-06T12:12:03.535Z,-1.01
2023-02-06T12:14:38.602Z,-1.01
2023-02-06T12:17:21.581Z,-0.98
2023-02-06T12:19:58.649Z,-0.99
2023-02-06T12:22:27.841Z,-0.98
2023-02-06T12:25:00.313Z,-1.02
2023-02-06T12:27:36.442Z,-0.88
2023-02-06T12:30:26.795Z,-0.89
2023-02-06T12:33:06.710Z,-0.90
2023-02-06T12:35:43.870Z,-0.91
2023-02-06T12:38:20.688Z,-0.94
2023-02-06T12:41:06.643Z,-0.99
2023-02-06T12:43:39.603Z,-1.05
2023-02-06T12:46:15.018Z,-1.10
2023-02-06T12:48:50.765Z,-1.03
2023-02-06T12:51:24.627Z,-1.12
2023-02-06T12:53:58.692Z,-1.14
2023-02-06T12:56:32.204Z,-1.18
2023-02-06T12:59:32.074Z,-1.14
2023-02-06T13:02:17.981Z,-1.14
2023-02-06T13:04:48.197Z,-1.15
2023-02-06T13:07:21.284Z,-1.11
2023-02-06T13:09:53.824Z,-1.15
2023-02-06T13:12:24.944Z,-1.14
2023-02-06T13:14:54.432Z,-1.10
2023-02-06T13:17:26.853Z,-1.09
2023-02-06T13:20:03.758Z,-1.10
2023-02-06T13:22:45.193Z,-1.15
2023-02-06T13:25:53.676Z,-1.16
2023-02-06T13:29:01.155Z,-1.17
2023-02-06T13:31:35.624Z,-1.16
2023-02-06T13:34:18.032Z,-1.18
2023-02-06T13:36:53.221Z,-1.16
2023-02-06T13:39:28.567Z,-1.14
2023-02-06T13:41:57.915Z,-1.14
2023-02-06T13:44:30.236Z,-1.16
2023-02-06T13:47:31.975Z,-1.16
2023-02-06T13:50:28.713Z,-1.20
2023-02-06T13:53:14.597Z,-1.21
2023-02-06T13:56:04.659Z,-1.18
2023-02-06T13:58:48.453Z,-1.19
2023-02-06T14:01:23.113Z,-1.20
2023-02-06T14:03:52.952Z,-1.21
2023-02-06T14:06:39.275Z,-1.24
2023-02-06T14:09:34.842Z,-1.26
2023-02-06T14:12:33.772Z,-1.28
2023-02-06T14:15:15.769Z,-1.30
2023-02-06T14:18:01.968Z,-1.32
2023-02-06T14:20:39.032Z,-1.32
2023-02-06T14:23:17.784Z,-1.31
2023-02-06T14:25:59.218Z,-1.34
2023-02-06T14:28:36.577Z,-1.36
2023-02-06T14:31:17.308Z,-1.37
2023-02-06T14:34:09.287Z,-1.38
2023-02-06T14:36:57.452Z,-1.40
2023-02-06T14:39:45.128Z,-1.43
2023-02-06T14:42:19.016Z,-1.45
2023-02-06T14:44:53.328Z,-1.49
2023-02-06T14:47:26.119Z,-1.50
2023-02-06T14:49:56.870Z,-1.56
2023-02-06T14:52:28.734Z,-1.59
2023-02-06T14:55:01.885Z,-1.60
2023-02-06T14:57:33.269Z,-1.62
2023-02-06T15:00:04.558Z,-1.60
2023-02-06T15:02:34.805Z,-1.61
2023-02-06T15:05:04.584Z,-1.60
2023-02-06T15:07:36.471Z,-1.59
2023-02-06T15:10:11.167Z,-1.57
2023-02-06T15:12:40.163Z,-1.53
2023-02-06T15:15:24.554Z,-1.53
2023-02-06T15:18:01.397Z,-1.59
2023-02-06T15:20:35.286Z,-1.61
2023-02-06T15:23:17.643Z,-1.64
2023-02-06T15:26:00.696Z,-1.66
2023-02-06T15:28:31.568Z,-1.64
2023-02-06T15:31:02.804Z,-1.64
2023-02-06T15:33:34.076Z,-1.62
2023-02-06T15:36:05.500Z,-1.65
2023-02-06T15:38:36.038Z,-1.66
2023-02-06T15:41:08.648Z,-1.65
2023-02-06T15:43:37.898Z,-1.64
2023-02-06T15:46:07.416Z,-1.64
2023-02-06T15:48:39.956Z,-1.62
2023-02-06T15:51:26.102Z,-1.64
2023-02-06T15:54:09.001Z,-1.59
2023-02-06T15:56:43.677Z,-1.62
2023-02-06T15:59:21.158Z,-1.61
2023-02-06T16:01:50.280Z,-1.61
2023-02-06T16:04:24.465Z,-1.59
2023-02-06T16:07:03.939Z,-1.61
2023-02-06T16:09:34.843Z,-1.62
2023-02-06T16:12:05.883Z,-1.66
2023-02-06T16:14:40.613Z,-1.60
2023-02-06T16:17:26.737Z,-1.63
2023-02-06T16:19:57.866Z,-1.60
2023-02-06T16:22:27.433Z,-1.59
2023-02-06T16:24:57.823Z,-1.60
2023-02-06T16:27:29.600Z,-1.59
2023-02-06T16:29:59.303Z,-1.60
2023-02-06T16:32:31.524Z,-1.61
2023-02-06T16:35:02.084Z,-1.59
2023-02-06T16:37:32.380Z,-1.59
2023-02-06T16:40:01.190Z,-1.60
2023-02-06T16:42:36.941Z,-1.58
2023-02-06T16:45:09.979Z,-1.56
2023-02-06T16:47:39.746Z,-1.55
2023-02-06T16:50:12.084Z,-1.52
2023-02-06T16:52:43.291Z,-1.54
2023-02-06T16:55:23.416Z,-1.52
2023-02-06T16:57:56.612Z,-1.49
2023-02-06T17:00:31.482Z,-1.46
2023-02-06T17:03:02.328Z,-1.46
2023-02-06T17:05:31.709Z,-1.48
2023-02-06T17:08:02.097Z,-1.46
2023-02-06T17:10:31.921Z,-1.40
2023-02-06T17:13:04.655Z,-1.30
2023-02-06T17:15:33.787Z,-1.43
2023-02-06T17:18:02.857Z,-1.44
2023-02-06T17:20:35.135Z,-1.41
2023-02-06T17:23:04.139Z,-1.39
2023-02-06T17:25:33.547Z,-1.42
2023-02-06T17:28:03.933Z,-1.35
2023-02-06T17:30:32.767Z,-1.34
2023-02-06T17:33:01.664Z,-1.32
2023-02-06T17:35:30.314Z,-1.26
2023-02-06T17:37:59.422Z,-1.34
2023-02-06T17:40:31.220Z,-1.35
2023-02-06T17:43:03.159Z,-1.27
2023-02-06T17:45:36.093Z,-1.34
2023-02-06T17:48:05.496Z,-1.33
2023-02-06T17:50:38.072Z,-1.39
2023-02-06T17:53:10.825Z,-1.40
2023-02-06T17:55:39.764Z,-1.39
2023-02-06T17:58:09.134Z,-1.37
2023-02-06T18:00:39.957Z,-1.42
2023-02-06T18:03:09.856Z,-1.37
2023-02-06T18:05:39.317Z,-1.31
2023-02-06T18:08:08.124Z,-1.35
2023-02-06T18:10:38.261Z,-1.37
2023-02-06T18:13:10.009Z,-1.33
2023-02-06T18:15:40.331Z,-1.39
2023-02-06T18:18:08.889Z,-1.40
2023-02-06T18:20:37.836Z,-1.40
2023-02-06T18:23:13.108Z,-1.34
2023-02-06T18:25:43.588Z,-1.41
2023-02-06T18:28:15.022Z,-1.44
2023-02-06T18:30:49.197Z,-1.43
2023-02-06T18:33:17.898Z,-1.45
2023-02-06T18:35:51.437Z,-1.47
2023-02-06T18:38:21.929Z,-1.50
2023-02-06T18:40:52.986Z,-1.51
2023-02-06T18:43:20.905Z,-1.52
2023-02-06T18:45:51.369Z,-1.48
2023-02-06T18:48:20.647Z,-1.53
2023-02-06T18:50:49.847Z,-1.52
2023-02-06T18:53:19.507Z,-1.61
2023-02-06T18:55:59.412Z,-1.57
2023-02-06T18:58:30.705Z,-1.63
2023-02-06T19:01:30.204Z,-1.73
2023-02-06T19:04:00.868Z,-1.77
2023-02-06T19:06:36.754Z,-1.66
2023-02-06T19:09:14.804Z,-1.77
2023-02-06T19:11:46.129Z,-1.80
2023-02-06T19:14:23.974Z,-1.87
2023-02-06T19:16:58.255Z,-1.83
2023-02-06T19:19:27.050Z,-1.82
2023-02-06T19:22:02.452Z,-1.84
2023-02-06T19:24:35.555Z,-1.88
2023-02-06T19:27:04.719Z,-1.90
2023-02-06T19:29:36.249Z,-1.93
2023-02-06T19:32:10.073Z,-1.99
2023-02-06T19:34:40.614Z,-2.04
2023-02-06T19:37:10.817Z,-2.05
2023-02-06T19:39:40.545Z,-2.20
2023-02-06T19:42:21.267Z,-2.26
2023-02-06T19:44:53.285Z,-2.27
2023-02-06T19:47:23.913Z,-2.36
2023-02-06T19:49:53.822Z,-2.38
2023-02-06T19:52:25.209Z,-2.52
2023-02-06T19:54:55.150Z,-2.54
2023-02-06T19:57:23.837Z,-2.59
2023-02-06T19:59:52.467Z,-2.56
2023-02-06T20:02:22.663Z,-2.70
2023-02-06T20:04:52.357Z,-2.60
2023-02-06T20:07:21.240Z,-2.68
2023-02-06T20:09:51.322Z,-2.74
2023-02-06T20:12:20.340Z,-2.76
2023-02-06T20:14:49.140Z,-2.82
2023-02-06T20:17:18.705Z,-2.82
2023-02-06T20:19:49.104Z,-2.70
2023-02-06T20:22:17.884Z,-2.76
2023-02-06T20:24:49.171Z,-2.66
2023-02-06T20:27:18.243Z,-2.63
2023-02-06T20:29:48.024Z,-2.47
2023-02-06T20:32:19.996Z,-2.51
2023-02-06T20:34:50.634Z,-2.61
2023-02-06T20:37:19.325Z,-2.55
2023-02-06T20:39:49.345Z,-2.60
2023-02-06T20:42:19.565Z,-2.52
2023-02-06T20:44:49.623Z,-2.48
2023-02-06T20:47:18.302Z,-2.65
2023-02-06T20:49:47.267Z,-2.74
2023-02-06T20:52:19.690Z,-2.76
2023-02-06T20:54:49.268Z,-2.66
2023-02-06T20:57:18.058Z,-2.75
2023-02-06T20:59:46.894Z,-2.66
2023-02-06T21:02:16.168Z,-2.81
2023-02-06T21:04:46.683Z,-2.82
2023-02-06T21:07:19.843Z,-2.98
2023-02-06T21:09:49.003Z,-2.87
2023-02-06T21:12:18.030Z,-2.91
2023-02-06T21:14:49.987Z,-2.83
2023-02-06T21:17:18.679Z,-2.86
2023-02-06T21:19:47.305Z,-2.82
2023-02-06T21:22:18.780Z,-2.83
2023-02-06T21:24:47.794Z,-2.79
2023-02-06T21:27:16.557Z,-2.86
2023-02-06T21:29:46.230Z,-2.80
2023-02-06T21:32:15.257Z,-2.90
2023-02-06T21:34:45.032Z,-2.83
2023-02-06T21:37:14.692Z,-2.79
2023-02-06T21:39:44.871Z,-2.68
2023-02-06T21:42:16.313Z,-2.59
2023-02-06T21:44:45.126Z,-3.01
2023-02-06T21:47:14.171Z,-3.33
2023-02-06T21:49:46.667Z,-3.48
2023-02-06T21:52:15.390Z,-3.15
2023-02-06T21:54:45.567Z,-2.86
2023-02-06T21:57:14.606Z,-2.74
2023-02-06T21:59:44.212Z,-2.85
2023-02-06T22:02:13.848Z,-2.69
2023-02-06T22:04:42.594Z,-2.99
2023-02-06T22:07:13.466Z,-3.16
2023-02-06T22:09:46.477Z,-3.86
2023-02-06T22:12:15.871Z,-4.16
2023-02-06T22:14:47.788Z,-3.63
2023-02-06T22:17:16.793Z,-3.60
2023-02-06T22:19:45.685Z,-3.75
2023-02-06T22:22:14.525Z,-3.70
2023-02-06T22:24:44.399Z,-3.71
2023-02-06T22:27:16.494Z,-3.98
2023-02-06T22:29:45.365Z,-4.17
2023-02-06T22:32:14.189Z,-4.47
2023-02-06T22:34:42.951Z,-4.25
2023-02-06T22:37:11.790Z,-4.23
2023-02-06T22:39:40.459Z,-4.10
2023-02-06T22:42:09.201Z,-4.11
2023-02-06T22:44:41.689Z,-3.93
2023-02-06T22:47:10.442Z,-3.89
2023-02-06T22:49:41.430Z,-3.89
2023-02-06T22:52:30.962Z,-3.87
2023-02-06T22:54:59.779Z,-3.82
2023-02-06T22:57:28.497Z,-3.80
2023-02-06T23:00:01.417Z,-3.81
2023-02-06T23:02:30.310Z,-3.79
2023-02-06T23:05:01.635Z,-4.11
2023-02-06T23:07:30.224Z,-4.15
2023-02-06T23:09:58.924Z,-4.27
2023-02-06T23:12:27.436Z,-4.42
2023-02-06T23:14:56.084Z,-4.83
2023-02-06T23:17:26.178Z,-5.05
2023-02-06T23:19:54.747Z,-5.35
2023-02-06T23:22:23.317Z,-5.35
2023-02-06T23:24:52.201Z,-5.10
2023-02-06T23:27:21.208Z,-4.87
2023-02-06T23:29:49.738Z,-4.67
2023-02-06T23:32:18.369Z,-4.60
2023-02-06T23:34:49.166Z,-4.55
2023-02-06T23:37:17.770Z,-4.59
2023-02-06T23:39:46.256Z,-4.58
2023-02-06T23:42:14.874Z,-4.54
2023-02-06T23:44:43.529Z,-4.61
2023-02-06T23:47:12.190Z,-4.48
2023-02-06T23:49:40.852Z,-4.44
2023-02-06T23:52:10.823Z,-4.43
2023-02-06T23:54:39.623Z,-4.43
2023-02-06T23:57:08.245Z,-4.44
2023-02-06T23:59:36.758Z,-4.40
